Boulder Creek (79, 626) Station Data

Red Flag Warning: No
Fire Weather Zone: 258
SDGE Region: Mountain Empire
Lat/Lon: 32.94/-116.636

Observations

Time Wind Speed/Gust Temp(F) RH Fuel Moist Fuel Temp(F) Dewpt(F) Tmax(F) Tmin(F) Accum Precip 10-min Precip SL Press(mb)
2/27 11:40pm 252 6 G 14 43° 100% - - 43° 45.9° 41.4° - - -
2/27 11:20pm 230 6 G 14 43° 100% - - 43° 45.9° 41.4° - - -
2/27 11:10pm 210 9 G 21 43° 100% - - 43° 45.9° 41.4° - - -
2/27 11:00pm 193 11 G 27 43° 100% - - 43° 45.9° 41.4° - - -
2/27 10:50pm 209 10 G 30 43° 100% - - 43° 45.9° 41.4° - - -
2/27 10:40pm 209 9 G 21 43° 100% - - 43° 45.9° 41.4° - - -
2/27 10:30pm 215 7 G 23 43° 100% - - 43° 45.9° 41.4° - - -
2/27 10:20pm 236 11 G 26 43° 100% - - 43° 45.9° 41.4° - - -
2/27 10:10pm 213 7 G 13 44° 100% - - 44° 45.9° 41.4° - - -
2/27 10:00pm 197 8 G 14 44° 100% - - 44° 45.9° 41.4° - - -
2/27 9:50pm 194 9 G 15 44° 100% - - 44° 45.9° 41.4° - - -
2/27 9:40pm 197 10 G 17 44° 100% - - 44° 45.9° 41.4° - - -
2/27 9:30pm 194 10 G 16 44° 100% - - 44° 45.9° 41.4° - - -
2/27 9:20pm 188 12 G 21 44° 100% - - 44° 45.9° 41.4° - - -
2/27 9:10pm 194 15 G 25 44° 100% - - 44° 45.9° 41.4° - - -
2/27 9:00pm 191 12 G 22 44° 100% - - 44° 45.9° 41.4° - - -
2/27 8:50pm 193 12 G 21 44° 100% - - 44° 45.9° 41.4° - - -
2/27 8:40pm 189 9 G 17 44° 100% - - 44° 45.9° 41.4° - - -
2/27 8:30pm 163 7 G 20 44° 100% - - 44° 45.9° 41.4° - - -
2/27 8:20pm 146 9 G 18 44° 100% - - 44° 45.9° 41.4° - - -
2/27 8:10pm 148 11 G 19 44° 100% - - 44° 45.9° 41.4° - - -
2/27 8:00pm 151 11 G 18 44° 100% - - 44° 45.9° 41.4° - - -
2/27 7:50pm 152 10 G 16 44° 100% - - 44° 45.9° 41.4° - - -
2/27 7:40pm 138 10 G 23 44° 100% - - 44° 45.9° 41.4° - - -
2/27 7:30pm 140 10 G 14 44° 100% - - 44° 45.9° 41.4° - - -
2/27 7:20pm 130 10 G 21 44° 100% - - 44° 45.9° 41.4° - - -
2/27 7:10pm 132 9 G 15 44° 100% - - 44° 45.9° 41.4° - - -
2/27 7:00pm 142 9 G 17 44° 100% - - 44° 45.9° 41.4° - - -
2/27 6:50pm 144 9 G 16 44° 100% - - 44° 45.9° 41.4° - - -
2/27 6:40pm 132 10 G 18 43° 100% - - 43° 45.9° 41.4° - - -
2/27 6:30pm 144 11 G 17 44° 100% - - 44° 45.9° 41.4° - - -
2/27 6:20pm 146 12 G 20 44° 100% - - 44° 45.9° 41.4° - - -
2/27 6:10pm 143 9 G 19 43° 100% - - 43° 45.9° 41.4° - - -
2/27 6:00pm 165 5 G 12 44° 100% - - 44° 45.9° 41.4° - - -
2/27 5:50pm 142 8 G 16 44° 100% - - 44° 45.9° 41.4° - - -
2/27 5:40pm 139 9 G 17 43° 100% - - 43° 45.9° 41.4° - - -
2/27 5:30pm 189 8 G 13 44° 100% - - 44° 45.9° 41.4° - - -
2/27 5:20pm 193 7 G 14 44° 100% - - 44° 45.9° 41.4° - - -
2/27 5:10pm 194 7 G 17 44° 100% - - 44° 45.9° 41.4° - - -
2/27 5:00pm 136 7 G 13 44° 100% - - 44° 45.9° 41.4° - - -
2/27 4:50pm 145 7 G 12 44° 100% - - 44° 45.9° 41.4° - - -
2/27 4:40pm 146 9 G 15 44° 100% - - 44° 45.9° 41.4° - - -
2/27 4:30pm 141 8 G 17 44° 100% - - 44° 45.9° 41.4° - - -
2/27 4:20pm 140 10 G 15 44° 100% - - 44° 45.9° 41.4° - - -
2/27 4:10pm 137 10 G 17 44° 100% - - 44° 45.9° 41.4° - - -
2/27 4:00pm 144 9 G 17 44° 100% - - 44° 45.9° 41.4° - - -
2/27 3:50pm 143 9 G 18 44° 100% - - 44° 45.9° 41.4° - - -
2/27 3:40pm 164 8 G 16 44° 100% - - 44° 45.9° 41.4° - - -
2/27 3:30pm 188 11 G 19 44° 100% - - 44° 45.9° 41.4° - - -
2/27 3:20pm 185 8 G 22 44° 100% - - 44° 45.9° 41.4° - - -
2/27 3:10pm 195 9 G 20 44° 100% - - 44° 45.9° 41.4° - - -
2/27 3:00pm 195 11 G 18 44° 100% - - 44° 45.9° 41.4° - - -
2/27 2:50pm 194 12 G 21 44° 100% - - 44° 45.9° 41.4° - - -
2/27 2:40pm 193 13 G 23 44° 100% - - 44° 45.9° 41.4° - - -
2/27 2:30pm 195 13 G 21 44° 100% - - 44° 45.9° 41.4° - - -
2/27 2:20pm 171 10 G 22 44° 100% - - 44° 45.9° 41.4° - - -
2/27 2:10pm 164 8 G 19 44° 100% - - 44° 45.9° 41.4° - - -
2/27 2:00pm 196 13 G 21 45° 100% - - 45° 45.9° 41.4° - - -
2/27 1:50pm 202 11 G 19 45° 100% - - 45° 45.9° 41.4° - - -
2/27 1:40pm 195 13 G 25 45° 100% - - 45° 45.9° 41.4° - - -
2/27 1:30pm 188 13 G 23 45° 100% - - 45° 45.9° 41.4° - - -
2/27 1:20pm 194 13 G 23 45° 100% - - 45° 45.9° 41.4° - - -
2/27 1:10pm 189 13 G 29 45° 100% - - 45° 45.9° 41.4° - - -
2/27 1:00pm 187 11 G 23 45° 100% - - 45° 45.9° 41.4° - - -
2/27 12:50pm 189 12 G 22 45° 100% - - 45° 45.9° 41.4° - - -
2/27 12:40pm 191 14 G 24 45° 100% - - 45° 45.9° 41.4° - - -
2/27 12:30pm 190 8 G 21 45° 100% - - 45° 45.9° 41.4° - - -
2/27 12:20pm 144 8 G 13 45° 100% - - 45° 45.9° 41.4° - - -
2/27 12:10pm 133 8 G 17 45° 100% - - 45° 45.9° 41.4° - - -
2/27 12:00pm 159 5 G 14 45° 100% - - 45° 45.9° 41.4° - - -
2/27 11:50am 185 10 G 22 45° 100% - - 45° 45.9° 41.4° - - -
2/27 11:40am 193 7 G 16 45° 100% - - 45° 45.9° 41.4° - - -
2/27 11:30am 191 6 G 13 45° 100% - - 45° 45.9° 41.4° - - -
2/27 11:20am 173 7 G 14 45° 100% - - 45° 45.9° 41.4° - - -
2/27 11:10am 194 9 G 18 45° 100% - - 45° 45.9° 41.4° - - -
2/27 11:00am 192 9 G 19 45° 100% - - 45° 45.9° 41.4° - - -
2/27 10:50am 186 7 G 13 46° 100% - - 46° 45.9° 41.4° - - -
2/27 10:40am 187 7 G 15 46° 100% - - 46° 45.9° 41.4° - - -
2/27 10:30am 189 8 G 15 45° 100% - - 46° 45.9° 41.4° - - -
2/27 10:20am 193 8 G 16 45° 100% - - 45° 45.9° 41.4° - - -
2/27 10:10am 185 9 G 20 45° 100% - - 46° 45.9° 41.4° - - -
2/27 10:00am 201 7 G 12 46° 100% - - 46° 45.9° 41.4° - - -
2/27 9:50am 193 8 G 14 46° 100% - - 46° 45.9° 41.4° - - -
2/27 9:40am 149 5 G 8 46° 100% - - 46° 45.9° 41.4° - - -
2/27 9:30am 145 6 G 12 46° 100% - - 46° 45.9° 41.4° - - -
2/27 9:20am 142 7 G 15 45° 100% - - 45° 45.9° 41.4° - - -
2/27 9:10am 150 6 G 11 45° 100% - - 45° 45.9° 41.4° - - -
2/27 9:00am 174 3 G 8 45° 100% - - 45° 45.9° 41.4° - - -
2/27 8:50am 138 7 G 11 45° 100% - - 45° 45.9° 41.4° - - -
2/27 8:40am 158 2 G 5 45° 100% - - 45° 45.9° 41.4° - - -
2/27 8:30am 164 3 G 10 45° 100% - - 45° 45.9° 41.4° - - -
2/27 8:20am 152 6 G 12 45° 100% - - 45° 45.9° 41.4° - - -
2/27 8:10am 182 5 G 11 46° 100% - - 46° 45.9° 41.4° - - -
2/27 8:00am 235 4 G 12 46° 100% - - 46° 45.9° 41.4° - - -
2/27 7:50am 201 7 G 11 46° 100% - - 46° 45.9° 41.4° - - -
2/27 7:40am 194 8 G 13 46° 100% - - 46° 45.9° 41.4° - - -
2/27 7:30am 163 6 G 13 46° 100% - - 46° 45.9° 41.4° - - -
2/27 7:20am 176 6 G 14 46° 100% - - 46° 45.9° 41.4° - - -
2/27 7:10am 187 9 G 17 46° 100% - - 46° 45.9° 41.4° - - -
2/27 7:00am 182 7 G 16 46° 100% - - 46° 45.8° 41.4° - - -
2/27 6:50am 163 4 G 15 45° 100% - - 45° 45.7° 41.4° - - -
2/27 6:40am 165 5 G 11 45° 100% - - 45° 45.6° 41.4° - - -
2/27 6:30am 137 5 G 11 45° 100% - - 45° 45.6° 41.4° - - -
2/27 6:20am 151 5 G 12 45° 100% - - 45° 45.6° 41.4° - - -
2/27 6:10am 138 7 G 14 45° 100% - - 45° 45.6° 41.4° - - -
2/27 6:00am 142 7 G 12 45° 100% - - 45° 45.6° 41.4° - - -
2/27 5:50am 144 10 G 19 45° 100% - - 45° 45.6° 41.4° - - -
2/27 5:40am 141 11 G 18 45° 100% - - 45° 45.5° 41.4° - - -
2/27 5:30am 145 12 G 18 45° 100% - - 45° 45.5° 41.4° - - -
2/27 5:20am 142 11 G 20 45° 100% - - 45° 45.5° 41.4° - - -
2/27 5:10am 141 11 G 19 45° 100% - - 45° 45.5° 41.4° - - -
2/27 5:00am 142 12 G 20 45° 100% - - 45° 45.5° 41.4° - - -
2/27 4:50am 143 10 G 16 45° 100% - - 45° 45.5° 41.4° - - -
2/27 4:40am 139 10 G 18 45° 100% - - 45° 45.4° 41.4° - - -
2/27 4:30am 135 10 G 19 45° 100% - - 45° 45.3° 41.4° - - -
2/27 4:20am 138 10 G 17 45° 100% - - 45° 45.2° 41.4° - - -
2/27 4:10am 135 10 G 20 45° 100% - - 45° 45.2° 41.4° - - -
2/27 4:00am 139 10 G 17 45° 100% - - 45° 45° 41.4° - - -
2/27 3:50am 142 7 G 15 45° 100% - - 45° 44.9° 41.4° - - -
2/27 3:40am 142 7 G 13 45° 100% - - 45° 44.9° 41.4° - - -
2/27 3:30am 138 6 G 13 44° 100% - - 44° 44.6° 41.4° - - -
2/27 3:20am 133 6 G 9 44° 100% - - 44° 44.4° 41.4° - - -
2/27 3:10am 128 7 G 11 44° 100% - - 44° 44.3° 41.4° - - -
2/27 3:00am 127 8 G 13 44° 100% - - 44° 44.2° 41.4° - - -
2/27 2:50am 131 8 G 13 44° 100% - - 44° 44.1° 41.4° - - -
2/27 2:40am 121 9 G 15 44° 100% - - 44° 44° 41.4° - - -
2/27 2:30am 125 7 G 12 44° 100% - - 44° 43.9° 41.4° - - -
2/27 2:20am 134 6 G 13 43° 100% - - 43° 43.6° 41.4° - - -
2/27 2:10am 134 5 G 8 43° 100% - - 43° 43.4° 41.4° - - -
2/27 2:00am 134 5 G 9 43° 100% - - 43° 43.2° 41.4° - - -
2/27 1:50am 138 5 G 8 43° 100% - - 43° 43° 41.4° - - -
2/27 1:40am 142 4 G 8 43° 100% - - 43° 43° 41.4° - - -
2/27 1:30am 144 5 G 11 43° 100% - - 43° 43° 41.4° - - -
2/27 1:20am 139 4 G 8 43° 100% - - 43° 42.9° 41.4° - - -
2/27 1:10am 133 4 G 7 43° 100% - - 43° 42.8° 41.4° - - -
2/27 1:00am 139 3 G 7 42° 100% - - 42° 42.6° 41.4° - - -
2/27 12:50am 148 5 G 11 42° 100% - - 42° 42.4° 41.4° - - -
2/27 12:40am 139 3 G 7 42° 100% - - 42° 42.1° 41.4° - - -
2/27 12:30am 135 5 G 9 42° 100% - - 42° 42° 41.4° - - -
2/27 12:20am 148 4 G 7 42° 100% - - 42° 41.9° 41.4° - - -
2/27 12:10am 164 4 G 8 42° 100% - - 42° 41.9° 41.5° - - -
2/27 12:00am 135 6 G 10 42° 100% - - 42° 43° 35.7° - - -
2/26 11:50pm 119 6 G 10 41° 100% - - 41° 43° 35.7° - - -
2/26 11:40pm 127 5 G 9 41° 100% - - 41° 43° 35.7° - - -
2/26 11:30pm 136 4 G 7 41° 100% - - 41° 43° 35.7° - - -
2/26 11:20pm 154 4 G 9 41° 100% - - 41° 43° 35.7° - - -
2/26 11:10pm 138 7 G 12 41° 98% - - 40° 43° 35.7° - - -
2/26 11:00pm 139 7 G 13 40° 89% - - 37° 43° 35.7° - - -
2/26 10:50pm 121 7 G 11 39° 78% - - 33° 43° 35.7° - - -
2/26 10:40pm 121 9 G 15 39° 74% - - 31° 43° 35.7° - - -
2/26 10:30pm 121 9 G 15 39° 73% - - 31° 43° 35.7° - - -
2/26 10:20pm 126 8 G 12 38° 91% - - 35° 43° 35.7° - - -
2/26 10:10pm 120 8 G 12 38° 97% - - 38° 43° 35.7° - - -
2/26 10:00pm 120 6 G 14 38° 97% - - 38° 43° 35.7° - - -
2/26 9:50pm 121 8 G 14 38° 96% - - 37° 43° 35.7° - - -
2/26 9:40pm 113 8 G 14 37° 100% - - 37° 43° 35.7° - - -
2/26 9:30pm 118 7 G 11 37° 100% - - 37° 43° 35.7° - - -
2/26 9:20pm 136 5 G 7 37° 100% - - 37° 43° 35.7° - - -
2/26 9:10pm 144 4 G 7 38° 100% - - 38° 43° 35.7° - - -
2/26 9:00pm 186 6 G 12 38° 100% - - 38° 43° 35.7° - - -
2/26 8:50pm 185 5 G 12 38° 100% - - 38° 43° 35.7° - - -
2/26 8:40pm 215 5 G 11 38° 100% - - 38° 43° 35.7° - - -
2/26 8:30pm 201 7 G 12 38° 100% - - 38° 43° 35.7° - - -
2/26 8:20pm 229 5 G 8 38° 100% - - 38° 43° 35.7° - - -
2/26 8:10pm 217 5 G 12 38° 100% - - 38° 43° 35.7° - - -
2/26 8:00pm 206 6 G 11 38° 100% - - 38° 43° 35.7° - - -
2/26 7:50pm 227 6 G 13 38° 100% - - 38° 43° 35.7° - - -
2/26 7:40pm 243 6 G 17 39° 100% - - 39° 43° 35.7° - - -
2/26 7:30pm 249 5 G 11 39° 100% - - 39° 43° 35.7° - - -
2/26 7:20pm 226 4 G 10 39° 100% - - 39° 43° 35.7° - - -
2/26 7:10pm 196 6 G 13 39° 100% - - 39° 43° 35.7° - - -
2/26 7:00pm 204 8 G 17 39° 100% - - 39° 43° 35.7° - - -
2/26 6:50pm 175 6 G 15 39° 100% - - 39° 43° 35.7° - - -
2/26 6:40pm 186 7 G 12 39° 100% - - 39° 43° 35.7° - - -
2/26 6:30pm 189 8 G 14 39° 100% - - 39° 43° 35.7° - - -
2/26 6:20pm 186 7 G 15 39° 100% - - 39° 43° 35.7° - - -
2/26 6:10pm 187 8 G 14 40° 100% - - 40° 43° 35.7° - - -
2/26 6:00pm 201 4 G 11 40° 100% - - 40° 43° 35.7° - - -
2/26 5:50pm 194 6 G 13 40° 100% - - 40° 43° 35.7° - - -
2/26 5:40pm 210 7 G 17 40° 100% - - 40° 43° 35.7° - - -
2/26 5:30pm 190 7 G 15 40° 100% - - 40° 43° 35.7° - - -
2/26 5:20pm 223 3 G 8 40° 100% - - 40° 43° 35.7° - - -
2/26 5:10pm 234 4 G 13 40° 100% - - 40° 43° 35.7° - - -
2/26 5:00pm 214 6 G 13 40° 99% - - 40° 43° 35.7° - - -